Veracruz Airport, Mexico

7:21 AM CDT on August 03, 2015 (GMT -0500)
Gen Heriberto Jara International | | Change Station
CLOSE
Current Station
Airport
Location: Veracruz Airport,
Elevation: 95 ft
Nearby Weather Stations

Elev 95 ft 19.15 °N, 96.19 °W | Updated 28 minutes ago

Scattered Clouds
Scattered Clouds
77 °F
Feels Like 77 °F
N
0
Wind Variable Wind from North

Today
High -- | Low -- °F
--% Chance of Precip.
Yesterday
High -- | Low -- °F
Precip. -- in
7:02 AM 7:59 PM
Waning Gibbous, 87% visible
Pressure 29.79 in
Visibility 5.0 miles
Clouds Scattered Clouds 1500 ft
Dew Point 75 °F
Humidity 94%
Rainfall 0.00 in
Snow Depth Not available.
UV 0 out of 12
Pollen Not available.
Air Quality Not available.
Flu Activity Not available.
METAR MMVR 031153Z 00000KT 5SM SCT015TCU 25/24 A2986 RMK SLP088 5//// 961 8/200 HZY

More Conditions Fewer Conditions

Pressure 29.79 in
Visibility 5.0 miles
Clouds Scattered Clouds 1500 ft
Dew Point 75 °F
Humidity 94%
Rainfall 0.00 in
Snow Depth Not available.
UV 0 out of 12
Pollen Not available.
Air Quality Not available.
Flu Activity Not available.
METAR MMVR 031153Z 00000KT 5SM SCT015TCU 25/24 A2986 RMK SLP088 5//// 961 8/200 HZY

More Conditions Fewer Conditions

10-Day Weather Forecast

×

Almanac

Astronomy

Aug. 03, 2015 Rise Set
Actual Time
Civil Twilight
Nautical Twilight
Astronomical Twilight
Moon
Length of Visible Light
Length of Day
Tomorrow will be .
, % of the Moon is Illuminated

Today's Extremes

Country Highs Country Lows

Community

WunderPhotos

Upload Photos

1,843,618 photos uploaded!

WunderBlogs® & News

Nearby

Air Quality

  Air Quality AQ Index Pollutant
Not available.

Snow Depth

Station Depth Elevation

Earthquake Activity

City Distance Mag. Time & Date
Minimum magnitude displayed is 2.5.

Coastal Water Temperatures

Place Temperature

Stations

Nearby Weather Stations

Station Location Temp. Windchill Dew Point Humidity Wind Precip. Elev Updated Type